sensor_id;sensor_type;location;lat;lon;timestamp;temperature;humidity
22629;DHT22;11481;53.694;9.910;2023-03-31T00:00:45;11.20;99.90
22629;DHT22;11481;53.694;9.910;2023-03-31T00:03:13;11.20;99.90
22629;DHT22;11481;53.694;9.910;2023-03-31T00:06:00;11.20;99.90
22629;DHT22;11481;53.694;9.910;2023-03-31T00:08:28;11.10;99.90
22629;DHT22;11481;53.694;9.910;2023-03-31T00:11:03;11.20;99.90
22629;DHT22;11481;53.694;9.910;2023-03-31T00:13:30;11.30;99.90
22629;DHT22;11481;53.694;9.910;2023-03-31T00:16:03;11.30;99.90
22629;DHT22;11481;53.694;9.910;2023-03-31T00:18:31;11.30;99.90
22629;DHT22;11481;53.694;9.910;2023-03-31T00:21:12;11.20;99.90
22629;DHT22;11481;53.694;9.910;2023-03-31T00:23:53;11.20;99.90
22629;DHT22;11481;53.694;9.910;2023-03-31T00:26:20;11.20;99.90
22629;DHT22;11481;53.694;9.910;2023-03-31T00:28:49;11.20;99.90
22629;DHT22;11481;53.694;9.910;2023-03-31T00:31:18;11.20;99.90
22629;DHT22;11481;53.694;9.910;2023-03-31T00:33:45;11.20;99.90
22629;DHT22;11481;53.694;9.910;2023-03-31T00:36:11;11.10;99.90
22629;DHT22;11481;53.694;9.910;2023-03-31T00:38:38;11.10;99.90
22629;DHT22;11481;53.694;9.910;2023-03-31T00:41:05;11.10;99.90
22629;DHT22;11481;53.694;9.910;2023-03-31T00:43:37;11.10;99.90
22629;DHT22;11481;53.694;9.910;2023-03-31T00:46:32;11.10;99.90
22629;DHT22;11481;53.694;9.910;2023-03-31T00:49:00;11.20;99.90
22629;DHT22;11481;53.694;9.910;2023-03-31T00:51:31;11.10;99.90
22629;DHT22;11481;53.694;9.910;2023-03-31T00:54:02;11.10;99.90
22629;DHT22;11481;53.694;9.910;2023-03-31T00:56:35;11.10;99.90
22629;DHT22;11481;53.694;9.910;2023-03-31T00:59:06;11.10;99.90
22629;DHT22;11481;53.694;9.910;2023-03-31T01:01:38;11.00;99.90
22629;DHT22;11481;53.694;9.910;2023-03-31T01:04:12;11.10;99.90
22629;DHT22;11481;53.694;9.910;2023-03-31T01:06:55;11.20;99.90
22629;DHT22;11481;53.694;9.910;2023-03-31T01:09:28;11.20;99.90
22629;DHT22;11481;53.694;9.910;2023-03-31T01:12:05;11.10;99.90
22629;DHT22;11481;53.694;9.910;2023-03-31T01:14:33;11.20;99.90
22629;DHT22;11481;53.694;9.910;2023-03-31T01:17:00;11.20;99.90
22629;DHT22;11481;53.694;9.910;2023-03-31T01:22:44;11.10;99.90
22629;DHT22;11481;53.694;9.910;2023-03-31T01:25:28;11.10;99.90
22629;DHT22;11481;53.694;9.910;2023-03-31T01:28:25;11.10;99.90
22629;DHT22;11481;53.694;9.910;2023-03-31T01:31:13;11.00;99.90
22629;DHT22;11481;53.694;9.910;2023-03-31T01:36:49;11.10;99.90
22629;DHT22;11481;53.694;9.910;2023-03-31T01:42:30;11.10;99.90
22629;DHT22;11481;53.694;9.910;2023-03-31T01:47:56;11.10;99.90
22629;DHT22;11481;53.694;9.910;2023-03-31T01:50:54;11.00;99.90
22629;DHT22;11481;53.694;9.910;2023-03-31T01:55:59;11.00;99.90
22629;DHT22;11481;53.694;9.910;2023-03-31T01:58:35;11.00;99.90
22629;DHT22;11481;53.694;9.910;2023-03-31T02:01:19;11.00;99.90
22629;DHT22;11481;53.694;9.910;2023-03-31T02:03:54;11.10;99.90
22629;DHT22;11481;53.694;9.910;2023-03-31T02:06:26;11.00;99.90
22629;DHT22;11481;53.694;9.910;2023-03-31T02:09:03;11.00;99.90
22629;DHT22;11481;53.694;9.910;2023-03-31T02:11:33;11.00;99.90
22629;DHT22;11481;53.694;9.910;2023-03-31T02:14:02;11.10;99.90
22629;DHT22;11481;53.694;9.910;2023-03-31T02:16:32;11.10;99.90
22629;DHT22;11481;53.694;9.910;2023-03-31T02:19:03;11.10;99.90
22629;DHT22;11481;53.694;9.910;2023-03-31T02:21:33;11.10;99.90
22629;DHT22;11481;53.694;9.910;2023-03-31T02:24:06;11.20;99.90
22629;DHT22;11481;53.694;9.910;2023-03-31T02:26:39;11.30;99.90
22629;DHT22;11481;53.694;9.910;2023-03-31T02:29:08;11.30;99.90
22629;DHT22;11481;53.694;9.910;2023-03-31T02:31:50;11.40;99.90
22629;DHT22;11481;53.694;9.910;2023-03-31T02:34:18;11.40;99.90
22629;DHT22;11481;53.694;9.910;2023-03-31T02:36:46;11.40;99.90
22629;DHT22;11481;53.694;9.910;2023-03-31T02:39:23;11.40;99.90
22629;DHT22;11481;53.694;9.910;2023-03-31T02:41:51;11.50;99.90
22629;DHT22;11481;53.694;9.910;2023-03-31T02:44:17;11.50;99.90
22629;DHT22;11481;53.694;9.910;2023-03-31T02:46:45;11.50;99.90
22629;DHT22;11481;53.694;9.910;2023-03-31T02:49:14;11.50;99.90
22629;DHT22;11481;53.694;9.910;2023-03-31T02:54:42;11.50;99.90
22629;DHT22;11481;53.694;9.910;2023-03-31T02:57:43;11.50;99.90
22629;DHT22;11481;53.694;9.910;2023-03-31T03:12:08;11.50;99.90
22629;DHT22;11481;53.694;9.910;2023-03-31T03:17:22;11.50;99.90
22629;DHT22;11481;53.694;9.910;2023-03-31T03:19:57;11.50;99.90
22629;DHT22;11481;53.694;9.910;2023-03-31T03:22:25;11.50;99.90
22629;DHT22;11481;53.694;9.910;2023-03-31T03:24:52;11.50;99.90
22629;DHT22;11481;53.694;9.910;2023-03-31T03:27:19;11.40;99.90
22629;DHT22;11481;53.694;9.910;2023-03-31T03:29:48;11.40;99.90
22629;DHT22;11481;53.694;9.910;2023-03-31T03:32:15;11.40;99.90
22629;DHT22;11481;53.694;9.910;2023-03-31T03:34:41;11.40;99.90
22629;DHT22;11481;53.694;9.910;2023-03-31T03:37:08;11.40;99.90
22629;DHT22;11481;53.694;9.910;2023-03-31T03:39:35;11.50;99.90
22629;DHT22;11481;53.694;9.910;2023-03-31T03:42:02;11.40;99.90
22629;DHT22;11481;53.694;9.910;2023-03-31T03:44:29;11.40;99.90
22629;DHT22;11481;53.694;9.910;2023-03-31T03:46:56;11.40;99.90
22629;DHT22;11481;53.694;9.910;2023-03-31T03:49:23;11.40;99.90
22629;DHT22;11481;53.694;9.910;2023-03-31T03:51:50;11.40;99.90
22629;DHT22;11481;53.694;9.910;2023-03-31T03:54:17;11.40;99.90
22629;DHT22;11481;53.694;9.910;2023-03-31T03:56:43;11.40;99.90
22629;DHT22;11481;53.694;9.910;2023-03-31T03:59:11;11.30;99.90
22629;DHT22;11481;53.694;9.910;2023-03-31T04:01:37;11.30;99.90
22629;DHT22;11481;53.694;9.910;2023-03-31T04:04:04;11.20;99.90
22629;DHT22;11481;53.694;9.910;2023-03-31T04:06:31;11.30;99.90
22629;DHT22;11481;53.694;9.910;2023-03-31T04:08:58;11.20;99.90
22629;DHT22;11481;53.694;9.910;2023-03-31T04:11:26;11.20;99.90
22629;DHT22;11481;53.694;9.910;2023-03-31T04:13:53;11.20;99.90
22629;DHT22;11481;53.694;9.910;2023-03-31T04:16:20;11.20;99.90
22629;DHT22;11481;53.694;9.910;2023-03-31T04:18:52;11.20;99.90
22629;DHT22;11481;53.694;9.910;2023-03-31T04:21:22;11.30;99.90
22629;DHT22;11481;53.694;9.910;2023-03-31T04:23:51;11.30;99.90
22629;DHT22;11481;53.694;9.910;2023-03-31T04:26:27;11.30;99.90
22629;DHT22;11481;53.694;9.910;2023-03-31T04:28:57;11.30;99.90
22629;DHT22;11481;53.694;9.910;2023-03-31T04:31:26;11.20;99.90
22629;DHT22;11481;53.694;9.910;2023-03-31T04:33:56;11.20;99.90
22629;DHT22;11481;53.694;9.910;2023-03-31T04:36:28;11.20;99.90
22629;DHT22;11481;53.694;9.910;2023-03-31T04:38:57;11.20;99.90
22629;DHT22;11481;53.694;9.910;2023-03-31T04:41:24;11.30;99.90
22629;DHT22;11481;53.694;9.910;2023-03-31T04:43:53;11.30;99.90
22629;DHT22;11481;53.694;9.910;2023-03-31T04:46:20;11.20;99.90
22629;DHT22;11481;53.694;9.910;2023-03-31T04:48:47;11.20;99.90
22629;DHT22;11481;53.694;9.910;2023-03-31T04:51:14;11.20;99.90
22629;DHT22;11481;53.694;9.910;2023-03-31T04:53:43;11.30;99.90
22629;DHT22;11481;53.694;9.910;2023-03-31T04:56:09;11.20;99.90
22629;DHT22;11481;53.694;9.910;2023-03-31T04:58:37;11.30;99.90
22629;DHT22;11481;53.694;9.910;2023-03-31T05:01:04;11.30;99.90
22629;DHT22;11481;53.694;9.910;2023-03-31T05:03:34;11.30;99.90
22629;DHT22;11481;53.694;9.910;2023-03-31T05:06:03;11.30;99.90
22629;DHT22;11481;53.694;9.910;2023-03-31T05:08:30;11.30;99.90
22629;DHT22;11481;53.694;9.910;2023-03-31T05:10:57;11.30;99.90
22629;DHT22;11481;53.694;9.910;2023-03-31T05:13:24;11.30;99.90
22629;DHT22;11481;53.694;9.910;2023-03-31T05:15:51;11.30;99.90
22629;DHT22;11481;53.694;9.910;2023-03-31T05:18:18;11.30;99.90
22629;DHT22;11481;53.694;9.910;2023-03-31T05:20:44;11.30;99.90
22629;DHT22;11481;53.694;9.910;2023-03-31T05:23:13;11.60;99.90
22629;DHT22;11481;53.694;9.910;2023-03-31T05:25:40;11.40;99.90
22629;DHT22;11481;53.694;9.910;2023-03-31T05:28:07;11.30;99.90
22629;DHT22;11481;53.694;9.910;2023-03-31T05:30:37;11.20;99.90
22629;DHT22;11481;53.694;9.910;2023-03-31T05:33:04;11.40;99.90
22629;DHT22;11481;53.694;9.910;2023-03-31T05:35:31;11.20;99.90
22629;DHT22;11481;53.694;9.910;2023-03-31T05:37:58;11.30;99.90
22629;DHT22;11481;53.694;9.910;2023-03-31T05:40:25;11.30;99.90
22629;DHT22;11481;53.694;9.910;2023-03-31T05:42:52;11.30;99.90
22629;DHT22;11481;53.694;9.910;2023-03-31T05:45:19;11.30;99.90
22629;DHT22;11481;53.694;9.910;2023-03-31T05:47:46;11.20;99.90
22629;DHT22;11481;53.694;9.910;2023-03-31T05:50:13;11.20;99.90
22629;DHT22;11481;53.694;9.910;2023-03-31T05:52:40;11.20;99.90
22629;DHT22;11481;53.694;9.910;2023-03-31T05:55:07;11.20;99.90
22629;DHT22;11481;53.694;9.910;2023-03-31T05:57:36;11.30;99.90
22629;DHT22;11481;53.694;9.910;2023-03-31T06:00:03;11.20;99.90
22629;DHT22;11481;53.694;9.910;2023-03-31T06:02:36;11.10;99.90
22629;DHT22;11481;53.694;9.910;2023-03-31T06:05:06;11.20;99.90
22629;DHT22;11481;53.694;9.910;2023-03-31T06:07:32;11.20;99.90
22629;DHT22;11481;53.694;9.910;2023-03-31T06:09:59;11.20;99.90
22629;DHT22;11481;53.694;9.910;2023-03-31T06:12:26;11.20;99.90
22629;DHT22;11481;53.694;9.910;2023-03-31T06:14:53;11.20;99.90
22629;DHT22;11481;53.694;9.910;2023-03-31T06:17:20;11.20;99.90
22629;DHT22;11481;53.694;9.910;2023-03-31T06:19:47;11.30;99.90
22629;DHT22;11481;53.694;9.910;2023-03-31T06:22:13;11.20;99.90
22629;DHT22;11481;53.694;9.910;2023-03-31T06:24:40;11.20;99.90
22629;DHT22;11481;53.694;9.910;2023-03-31T06:27:10;11.30;99.90
22629;DHT22;11481;53.694;9.910;2023-03-31T06:29:39;11.30;99.90
22629;DHT22;11481;53.694;9.910;2023-03-31T06:32:05;11.30;99.90
22629;DHT22;11481;53.694;9.910;2023-03-31T06:34:32;11.30;99.90
22629;DHT22;11481;53.694;9.910;2023-03-31T06:36:59;11.30;99.90
22629;DHT22;11481;53.694;9.910;2023-03-31T06:39:28;11.30;99.90
22629;DHT22;11481;53.694;9.910;2023-03-31T06:41:55;11.30;99.90
22629;DHT22;11481;53.694;9.910;2023-03-31T06:44:23;11.30;99.90
22629;DHT22;11481;53.694;9.910;2023-03-31T06:46:53;11.30;99.90
22629;DHT22;11481;53.694;9.910;2023-03-31T06:49:20;11.40;99.90
22629;DHT22;11481;53.694;9.910;2023-03-31T06:51:47;11.40;99.90
22629;DHT22;11481;53.694;9.910;2023-03-31T06:54:13;11.30;99.90
22629;DHT22;11481;53.694;9.910;2023-03-31T06:56:40;11.40;99.90
22629;DHT22;11481;53.694;9.910;2023-03-31T06:59:07;11.40;99.90
22629;DHT22;11481;53.694;9.910;2023-03-31T07:01:34;11.40;99.90
22629;DHT22;11481;53.694;9.910;2023-03-31T07:04:03;11.40;99.90
22629;DHT22;11481;53.694;9.910;2023-03-31T07:06:30;11.50;99.90
22629;DHT22;11481;53.694;9.910;2023-03-31T07:09:02;11.50;99.90
22629;DHT22;11481;53.694;9.910;2023-03-31T07:11:30;11.50;99.90
22629;DHT22;11481;53.694;9.910;2023-03-31T07:13:57;11.60;99.90
22629;DHT22;11481;53.694;9.910;2023-03-31T07:16:23;12.70;99.90
22629;DHT22;11481;53.694;9.910;2023-03-31T07:18:51;11.60;99.90
22629;DHT22;11481;53.694;9.910;2023-03-31T07:21:20;11.60;99.90
22629;DHT22;11481;53.694;9.910;2023-03-31T07:23:49;11.60;99.90
22629;DHT22;11481;53.694;9.910;2023-03-31T07:26:16;11.60;99.90
22629;DHT22;11481;53.694;9.910;2023-03-31T07:28:43;12.40;99.90
22629;DHT22;11481;53.694;9.910;2023-03-31T07:31:14;11.70;99.90
22629;DHT22;11481;53.694;9.910;2023-03-31T07:33:41;11.70;99.90
22629;DHT22;11481;53.694;9.910;2023-03-31T07:36:10;11.80;99.90
22629;DHT22;11481;53.694;9.910;2023-03-31T07:38:41;11.80;99.90
22629;DHT22;11481;53.694;9.910;2023-03-31T07:41:13;11.80;99.90
22629;DHT22;11481;53.694;9.910;2023-03-31T07:43:40;11.80;99.90
22629;DHT22;11481;53.694;9.910;2023-03-31T07:46:16;11.90;99.90
22629;DHT22;11481;53.694;9.910;2023-03-31T07:48:44;11.90;99.90
22629;DHT22;11481;53.694;9.910;2023-03-31T07:51:17;12.00;99.90
22629;DHT22;11481;53.694;9.910;2023-03-31T07:53:44;12.10;99.90
22629;DHT22;11481;53.694;9.910;2023-03-31T07:56:12;12.00;99.90
22629;DHT22;11481;53.694;9.910;2023-03-31T07:58:38;12.10;99.90
22629;DHT22;11481;53.694;9.910;2023-03-31T08:01:05;12.10;99.90
22629;DHT22;11481;53.694;9.910;2023-03-31T08:03:35;12.10;99.90
22629;DHT22;11481;53.694;9.910;2023-03-31T08:06:04;12.10;99.90
22629;DHT22;11481;53.694;9.910;2023-03-31T08:08:31;12.10;99.90
22629;DHT22;11481;53.694;9.910;2023-03-31T08:10:58;12.40;99.90
22629;DHT22;11481;53.694;9.910;2023-03-31T08:13:26;12.10;99.90
22629;DHT22;11481;53.694;9.910;2023-03-31T08:15:53;12.20;99.90
22629;DHT22;11481;53.694;9.910;2023-03-31T08:18:22;12.20;99.90
22629;DHT22;11481;53.694;9.910;2023-03-31T08:20:48;12.20;99.90
22629;DHT22;11481;53.694;9.910;2023-03-31T08:23:16;12.30;99.90
22629;DHT22;11481;53.694;9.910;2023-03-31T08:25:42;12.30;99.90
22629;DHT22;11481;53.694;9.910;2023-03-31T08:28:09;12.20;99.90
22629;DHT22;11481;53.694;9.910;2023-03-31T08:30:41;12.30;99.90
22629;DHT22;11481;53.694;9.910;2023-03-31T08:33:08;12.20;99.90
22629;DHT22;11481;53.694;9.910;2023-03-31T08:35:39;12.30;99.90
22629;DHT22;11481;53.694;9.910;2023-03-31T08:38:06;12.30;99.90
22629;DHT22;11481;53.694;9.910;2023-03-31T08:40:33;12.30;99.90
22629;DHT22;11481;53.694;9.910;2023-03-31T08:43:11;12.30;99.90
22629;DHT22;11481;53.694;9.910;2023-03-31T08:45:45;12.30;99.90
22629;DHT22;11481;53.694;9.910;2023-03-31T08:51:24;12.20;99.90
22629;DHT22;11481;53.694;9.910;2023-03-31T08:54:17;12.20;99.90
22629;DHT22;11481;53.694;9.910;2023-03-31T08:56:47;12.20;99.90
22629;DHT22;11481;53.694;9.910;2023-03-31T08:59:35;12.20;99.90
22629;DHT22;11481;53.694;9.910;2023-03-31T09:08:23;12.20;99.90
22629;DHT22;11481;53.694;9.910;2023-03-31T09:19:01;12.20;99.90
22629;DHT22;11481;53.694;9.910;2023-03-31T09:21:31;12.10;99.90
22629;DHT22;11481;53.694;9.910;2023-03-31T09:24:03;12.20;99.90
22629;DHT22;11481;53.694;9.910;2023-03-31T09:26:39;12.10;99.90
22629;DHT22;11481;53.694;9.910;2023-03-31T09:29:41;12.20;99.90
22629;DHT22;11481;53.694;9.910;2023-03-31T09:34:40;12.40;99.90
22629;DHT22;11481;53.694;9.910;2023-03-31T09:37:12;12.40;99.90
22629;DHT22;11481;53.694;9.910;2023-03-31T09:39:39;12.50;99.90
22629;DHT22;11481;53.694;9.910;2023-03-31T09:42:08;12.50;99.90
22629;DHT22;11481;53.694;9.910;2023-03-31T09:44:47;12.50;99.90
22629;DHT22;11481;53.694;9.910;2023-03-31T09:47:27;12.50;99.90
22629;DHT22;11481;53.694;9.910;2023-03-31T09:49:54;12.50;99.90
22629;DHT22;11481;53.694;9.910;2023-03-31T09:52:42;12.60;99.90
22629;DHT22;11481;53.694;9.910;2023-03-31T09:55:21;12.60;99.90
22629;DHT22;11481;53.694;9.910;2023-03-31T09:58:11;12.60;99.90
22629;DHT22;11481;53.694;9.910;2023-03-31T10:00:54;12.70;99.90
22629;DHT22;11481;53.694;9.910;2023-03-31T10:03:23;12.80;99.90
22629;DHT22;11481;53.694;9.910;2023-03-31T10:05:53;12.80;99.90
22629;DHT22;11481;53.694;9.910;2023-03-31T10:08:39;12.80;99.90
22629;DHT22;11481;53.694;9.910;2023-03-31T10:11:11;12.90;99.90
22629;DHT22;11481;53.694;9.910;2023-03-31T10:14:04;12.80;99.90
22629;DHT22;11481;53.694;9.910;2023-03-31T10:16:54;12.90;99.90
22629;DHT22;11481;53.694;9.910;2023-03-31T10:19:26;12.90;99.90
22629;DHT22;11481;53.694;9.910;2023-03-31T10:22:13;12.70;99.90
22629;DHT22;11481;53.694;9.910;2023-03-31T10:24:43;12.70;99.90
22629;DHT22;11481;53.694;9.910;2023-03-31T10:27:23;12.70;99.90
22629;DHT22;11481;53.694;9.910;2023-03-31T10:29:54;12.80;99.90
22629;DHT22;11481;53.694;9.910;2023-03-31T10:32:31;12.80;99.90
22629;DHT22;11481;53.694;9.910;2023-03-31T10:35:20;12.90;99.90
22629;DHT22;11481;53.694;9.910;2023-03-31T10:37:54;12.80;99.90
22629;DHT22;11481;53.694;9.910;2023-03-31T10:40:27;12.80;99.90
22629;DHT22;11481;53.694;9.910;2023-03-31T10:43:39;12.80;99.90
22629;DHT22;11481;53.694;9.910;2023-03-31T10:46:07;12.80;99.90
22629;DHT22;11481;53.694;9.910;2023-03-31T10:48:37;12.70;99.90
22629;DHT22;11481;53.694;9.910;2023-03-31T10:51:18;12.70;99.90
22629;DHT22;11481;53.694;9.910;2023-03-31T10:53:50;12.90;99.90
22629;DHT22;11481;53.694;9.910;2023-03-31T10:56:40;12.90;99.90
22629;DHT22;11481;53.694;9.910;2023-03-31T11:10:40;13.30;99.90
22629;DHT22;11481;53.694;9.910;2023-03-31T11:13:24;13.40;99.90
22629;DHT22;11481;53.694;9.910;2023-03-31T11:18:46;13.40;99.90
22629;DHT22;11481;53.694;9.910;2023-03-31T11:26:38;13.60;99.90
22629;DHT22;11481;53.694;9.910;2023-03-31T11:34:36;13.70;99.90
22629;DHT22;11481;53.694;9.910;2023-03-31T11:42:21;13.70;99.90
22629;DHT22;11481;53.694;9.910;2023-03-31T11:45:00;13.60;99.90
22629;DHT22;11481;53.694;9.910;2023-03-31T11:47:31;13.60;99.90
22629;DHT22;11481;53.694;9.910;2023-03-31T11:50:10;13.60;99.90
22629;DHT22;11481;53.694;9.910;2023-03-31T11:52:41;13.60;99.90
22629;DHT22;11481;53.694;9.910;2023-03-31T11:55:20;13.60;99.90
22629;DHT22;11481;53.694;9.910;2023-03-31T11:58:04;13.60;99.90
22629;DHT22;11481;53.694;9.910;2023-03-31T12:00:45;13.50;99.90
22629;DHT22;11481;53.694;9.910;2023-03-31T12:06:12;13.30;99.90
22629;DHT22;11481;53.694;9.910;2023-03-31T12:11:39;13.20;99.90
22629;DHT22;11481;53.694;9.910;2023-03-31T12:16:51;13.30;99.90
22629;DHT22;11481;53.694;9.910;2023-03-31T12:19:47;13.20;99.90
22629;DHT22;11481;53.694;9.910;2023-03-31T12:22:22;13.10;99.90
22629;DHT22;11481;53.694;9.910;2023-03-31T12:24:54;13.00;99.90
22629;DHT22;11481;53.694;9.910;2023-03-31T12:27:38;12.90;99.90
22629;DHT22;11481;53.694;9.910;2023-03-31T12:30:16;12.90;99.90
22629;DHT22;11481;53.694;9.910;2023-03-31T12:32:47;12.80;99.90
22629;DHT22;11481;53.694;9.910;2023-03-31T12:35:24;12.90;99.90
22629;DHT22;11481;53.694;9.910;2023-03-31T12:38:12;13.00;99.90
22629;DHT22;11481;53.694;9.910;2023-03-31T12:49:27;13.00;99.90
22629;DHT22;11481;53.694;9.910;2023-03-31T12:52:06;13.00;99.90
22629;DHT22;11481;53.694;9.910;2023-03-31T12:59:41;13.00;99.90
22629;DHT22;11481;53.694;9.910;2023-03-31T13:04:42;13.00;99.90
22629;DHT22;11481;53.694;9.910;2023-03-31T13:10:23;13.00;99.90
22629;DHT22;11481;53.694;9.910;2023-03-31T13:13:01;13.10;99.90
22629;DHT22;11481;53.694;9.910;2023-03-31T13:15:29;13.10;99.90
22629;DHT22;11481;53.694;9.910;2023-03-31T13:18:00;13.10;99.90
22629;DHT22;11481;53.694;9.910;2023-03-31T13:20:36;13.20;99.90
22629;DHT22;11481;53.694;9.910;2023-03-31T13:23:17;13.30;99.90
22629;DHT22;11481;53.694;9.910;2023-03-31T13:25:53;13.30;99.90
22629;DHT22;11481;53.694;9.910;2023-03-31T13:30:55;13.40;99.90
22629;DHT22;11481;53.694;9.910;2023-03-31T13:33:58;13.40;99.90
22629;DHT22;11481;53.694;9.910;2023-03-31T13:48:25;13.60;99.90
22629;DHT22;11481;53.694;9.910;2023-03-31T13:53:42;13.60;99.90
22629;DHT22;11481;53.694;9.910;2023-03-31T14:05:29;13.90;99.90
22629;DHT22;11481;53.694;9.910;2023-03-31T14:08:13;13.90;99.90
22629;DHT22;11481;53.694;9.910;2023-03-31T14:10:42;13.80;99.90
22629;DHT22;11481;53.694;9.910;2023-03-31T14:13:15;13.90;99.90
22629;DHT22;11481;53.694;9.910;2023-03-31T14:15:56;13.90;99.90
22629;DHT22;11481;53.694;9.910;2023-03-31T14:18:29;13.90;99.90
22629;DHT22;11481;53.694;9.910;2023-03-31T14:21:29;14.00;99.90
22629;DHT22;11481;53.694;9.910;2023-03-31T14:24:15;14.10;99.90
22629;DHT22;11481;53.694;9.910;2023-03-31T14:29:51;14.10;99.90
22629;DHT22;11481;53.694;9.910;2023-03-31T14:32:29;14.20;99.90
22629;DHT22;11481;53.694;9.910;2023-03-31T14:37:30;14.20;99.90
22629;DHT22;11481;53.694;9.910;2023-03-31T14:40:00;14.30;99.90
22629;DHT22;11481;53.694;9.910;2023-03-31T14:42:37;14.30;99.90
22629;DHT22;11481;53.694;9.910;2023-03-31T14:45:25;14.30;99.90
22629;DHT22;11481;53.694;9.910;2023-03-31T14:48:10;14.40;99.90
22629;DHT22;11481;53.694;9.910;2023-03-31T14:50:42;14.40;99.90
22629;DHT22;11481;53.694;9.910;2023-03-31T14:53:14;14.50;99.90
22629;DHT22;11481;53.694;9.910;2023-03-31T14:55:42;14.60;99.90
22629;DHT22;11481;53.694;9.910;2023-03-31T14:58:23;14.60;99.90
22629;DHT22;11481;53.694;9.910;2023-03-31T15:00:52;14.70;99.90
22629;DHT22;11481;53.694;9.910;2023-03-31T15:03:19;14.70;99.90
22629;DHT22;11481;53.694;9.910;2023-03-31T15:05:47;14.70;99.90
22629;DHT22;11481;53.694;9.910;2023-03-31T15:08:21;14.80;99.90
22629;DHT22;11481;53.694;9.910;2023-03-31T15:10:56;14.80;99.90
22629;DHT22;11481;53.694;9.910;2023-03-31T15:13:43;14.80;99.90
22629;DHT22;11481;53.694;9.910;2023-03-31T15:19:23;14.80;99.90
22629;DHT22;11481;53.694;9.910;2023-03-31T15:22:07;14.80;99.90
22629;DHT22;11481;53.694;9.910;2023-03-31T15:24:35;14.70;99.90
22629;DHT22;11481;53.694;9.910;2023-03-31T15:27:27;14.60;99.90
22629;DHT22;11481;53.694;9.910;2023-03-31T15:30:07;14.60;99.90
22629;DHT22;11481;53.694;9.910;2023-03-31T15:32:40;14.20;99.90
22629;DHT22;11481;53.694;9.910;2023-03-31T15:35:28;13.60;99.90
22629;DHT22;11481;53.694;9.910;2023-03-31T15:37:57;12.90;99.90
22629;DHT22;11481;53.694;9.910;2023-03-31T15:40:28;12.40;99.90
22629;DHT22;11481;53.694;9.910;2023-03-31T15:43:03;12.20;99.90
22629;DHT22;11481;53.694;9.910;2023-03-31T15:46:00;12.20;99.90
22629;DHT22;11481;53.694;9.910;2023-03-31T15:48:51;12.20;99.90
22629;DHT22;11481;53.694;9.910;2023-03-31T15:51:24;12.20;99.90
22629;DHT22;11481;53.694;9.910;2023-03-31T15:53:53;12.20;99.90
22629;DHT22;11481;53.694;9.910;2023-03-31T15:56:43;12.20;99.90
22629;DHT22;11481;53.694;9.910;2023-03-31T15:59:24;12.30;99.90
22629;DHT22;11481;53.694;9.910;2023-03-31T16:02:03;12.30;99.90
22629;DHT22;11481;53.694;9.910;2023-03-31T16:04:31;12.40;99.90
22629;DHT22;11481;53.694;9.910;2023-03-31T16:07:04;12.50;99.90
22629;DHT22;11481;53.694;9.910;2023-03-31T16:09:59;12.60;99.90
22629;DHT22;11481;53.694;9.910;2023-03-31T16:12:38;12.80;99.90
22629;DHT22;11481;53.694;9.910;2023-03-31T16:15:16;12.80;99.90
22629;DHT22;11481;53.694;9.910;2023-03-31T16:17:57;12.90;99.90
22629;DHT22;11481;53.694;9.910;2023-03-31T16:20:36;13.00;99.90
22629;DHT22;11481;53.694;9.910;2023-03-31T16:23:26;13.10;99.90
22629;DHT22;11481;53.694;9.910;2023-03-31T16:25:55;13.20;99.90
22629;DHT22;11481;53.694;9.910;2023-03-31T16:28:27;13.30;99.90
22629;DHT22;11481;53.694;9.910;2023-03-31T16:30:55;13.30;99.90
22629;DHT22;11481;53.694;9.910;2023-03-31T16:33:24;13.50;99.90
22629;DHT22;11481;53.694;9.910;2023-03-31T16:35:52;13.00;99.90
22629;DHT22;11481;53.694;9.910;2023-03-31T16:38:24;12.90;99.90
22629;DHT22;11481;53.694;9.910;2023-03-31T16:40:53;12.90;99.90
22629;DHT22;11481;53.694;9.910;2023-03-31T16:43:28;12.80;99.90
22629;DHT22;11481;53.694;9.910;2023-03-31T16:45:58;12.90;99.90
22629;DHT22;11481;53.694;9.910;2023-03-31T16:48:27;13.10;99.90
22629;DHT22;11481;53.694;9.910;2023-03-31T16:50:56;13.20;99.90
22629;DHT22;11481;53.694;9.910;2023-03-31T16:53:28;13.20;99.90
22629;DHT22;11481;53.694;9.910;2023-03-31T16:55:55;13.40;99.90
22629;DHT22;11481;53.694;9.910;2023-03-31T16:58:24;13.30;99.90
22629;DHT22;11481;53.694;9.910;2023-03-31T17:00:54;13.40;99.90
22629;DHT22;11481;53.694;9.910;2023-03-31T17:03:21;13.40;99.90
22629;DHT22;11481;53.694;9.910;2023-03-31T17:05:50;13.40;99.90
22629;DHT22;11481;53.694;9.910;2023-03-31T17:08:20;13.40;99.90
22629;DHT22;11481;53.694;9.910;2023-03-31T17:13:18;13.50;99.90
22629;DHT22;11481;53.694;9.910;2023-03-31T17:15:45;13.50;99.90
22629;DHT22;11481;53.694;9.910;2023-03-31T17:18:12;13.40;99.90
22629;DHT22;11481;53.694;9.910;2023-03-31T17:20:38;13.40;99.90
22629;DHT22;11481;53.694;9.910;2023-03-31T17:23:05;13.50;99.90
22629;DHT22;11481;53.694;9.910;2023-03-31T17:25:33;13.50;99.90
22629;DHT22;11481;53.694;9.910;2023-03-31T17:28:02;13.50;99.90
22629;DHT22;11481;53.694;9.910;2023-03-31T17:30:33;13.50;99.90
22629;DHT22;11481;53.694;9.910;2023-03-31T17:33:02;13.50;99.90
22629;DHT22;11481;53.694;9.910;2023-03-31T17:35:29;13.50;99.90
22629;DHT22;11481;53.694;9.910;2023-03-31T17:37:56;13.40;99.90
22629;DHT22;11481;53.694;9.910;2023-03-31T17:40:23;13.50;99.90
22629;DHT22;11481;53.694;9.910;2023-03-31T17:42:53;13.50;99.90
22629;DHT22;11481;53.694;9.910;2023-03-31T17:45:20;13.50;99.90
22629;DHT22;11481;53.694;9.910;2023-03-31T17:47:48;13.50;99.90
22629;DHT22;11481;53.694;9.910;2023-03-31T17:50:16;13.50;99.90
22629;DHT22;11481;53.694;9.910;2023-03-31T17:52:45;13.50;99.90
22629;DHT22;11481;53.694;9.910;2023-03-31T17:55:11;13.50;99.90
22629;DHT22;11481;53.694;9.910;2023-03-31T17:57:39;13.40;99.90
22629;DHT22;11481;53.694;9.910;2023-03-31T18:00:08;13.40;99.90
22629;DHT22;11481;53.694;9.910;2023-03-31T18:02:37;13.40;99.90
22629;DHT22;11481;53.694;9.910;2023-03-31T18:05:05;13.30;99.90
22629;DHT22;11481;53.694;9.910;2023-03-31T18:07:34;13.40;99.90
22629;DHT22;11481;53.694;9.910;2023-03-31T18:10:02;13.30;99.90
22629;DHT22;11481;53.694;9.910;2023-03-31T18:12:32;13.30;99.90
22629;DHT22;11481;53.694;9.910;2023-03-31T18:14:59;13.30;99.90
22629;DHT22;11481;53.694;9.910;2023-03-31T18:17:28;13.30;99.90
22629;DHT22;11481;53.694;9.910;2023-03-31T18:19:56;13.30;99.90
22629;DHT22;11481;53.694;9.910;2023-03-31T18:22:24;13.20;99.90
22629;DHT22;11481;53.694;9.910;2023-03-31T18:24:51;13.20;99.90
22629;DHT22;11481;53.694;9.910;2023-03-31T18:27:17;13.20;99.90
22629;DHT22;11481;53.694;9.910;2023-03-31T18:29:44;13.10;99.90